createdAt,value
2022-09-27T04:05:24.792Z,11.04
2022-09-27T04:08:28.674Z,11.04
2022-09-27T04:11:31.277Z,11.00
2022-09-27T04:14:34.129Z,11.02
2022-09-27T04:17:44.141Z,11.02
2022-09-27T04:20:47.704Z,11.02
2022-09-27T04:23:50.285Z,11.01
2022-09-27T04:26:54.497Z,11.04
2022-09-27T04:29:57.448Z,11.03
2022-09-27T04:33:03.441Z,11.02
2022-09-27T04:36:28.018Z,11.03
2022-09-27T04:39:33.575Z,11.02
2022-09-27T04:42:36.515Z,10.97
2022-09-27T04:45:39.604Z,11.00
2022-09-27T04:48:42.232Z,10.98
2022-09-27T04:51:45.360Z,10.98
2022-09-27T04:54:47.988Z,10.98
2022-09-27T04:57:51.384Z,10.95
2022-09-27T05:00:56.420Z,11.03
2022-09-27T05:04:03.149Z,11.06
2022-09-27T05:07:05.922Z,11.10
2022-09-27T05:10:10.631Z,11.11
2022-09-27T05:13:15.167Z,11.12
2022-09-27T05:16:18.459Z,11.13
2022-09-27T05:19:21.768Z,11.23
2022-09-27T05:22:29.135Z,11.06
2022-09-27T05:25:32.291Z,11.27
2022-09-27T05:28:38.301Z,11.41
2022-09-27T05:31:41.017Z,11.52
2022-09-27T05:34:44.039Z,11.62
2022-09-27T05:37:57.514Z,11.74
2022-09-27T05:41:01.643Z,11.74
2022-09-27T05:44:06.133Z,11.88
2022-09-27T05:47:09.517Z,12.04
2022-09-27T05:50:12.193Z,12.18
2022-09-27T05:53:15.190Z,12.35
2022-09-27T05:56:17.989Z,12.46
2022-09-27T05:59:22.857Z,12.40
2022-09-27T06:02:33.522Z,12.75
2022-09-27T06:05:55.548Z,12.78
2022-09-27T06:09:01.679Z,12.74
2022-09-27T06:12:05.992Z,12.68
2022-09-27T06:15:08.834Z,12.75
2022-09-27T06:18:17.049Z,12.64
2022-09-27T06:21:20.520Z,12.72
2022-09-27T06:24:24.806Z,12.62
2022-09-27T06:27:27.641Z,12.74
2022-09-27T06:30:30.815Z,13.00
2022-09-27T06:33:33.925Z,13.08
2022-09-27T06:36:37.399Z,13.26
2022-09-27T06:39:39.976Z,13.46
2022-09-27T06:42:44.191Z,13.42
2022-09-27T06:45:47.383Z,13.55
2022-09-27T06:48:57.019Z,13.47
2022-09-27T06:51:59.919Z,13.18
2022-09-27T06:55:04.790Z,13.43
2022-09-27T06:58:26.567Z,13.92
2022-09-27T07:01:32.149Z,13.95
2022-09-27T07:04:35.008Z,13.94
2022-09-27T07:07:38.430Z,13.98
2022-09-27T07:10:41.275Z,14.30
2022-09-27T07:13:45.353Z,14.39
2022-09-27T07:16:48.146Z,14.50
2022-09-27T07:19:53.150Z,14.30
2022-09-27T07:22:56.076Z,14.18
2022-09-27T07:26:07.579Z,14.49
2022-09-27T07:29:10.456Z,14.78
2022-09-27T07:32:13.746Z,14.91
2022-09-27T07:35:16.465Z,15.03
2022-09-27T07:38:20.443Z,14.68
2022-09-27T07:41:23.125Z,14.86
2022-09-27T07:44:27.354Z,14.91
2022-09-27T07:47:31.844Z,15.13
2022-09-27T07:50:35.553Z,15.02
2022-09-27T07:53:38.386Z,15.00
2022-09-27T07:56:42.773Z,15.08
2022-09-27T07:59:47.408Z,15.25
2022-09-27T08:02:50.850Z,15.30
2022-09-27T08:05:54.112Z,15.77
2022-09-27T08:08:57.845Z,16.00
2022-09-27T08:12:01.339Z,16.40
2022-09-27T08:15:04.815Z,16.56
2022-09-27T08:18:09.719Z,16.22
2022-09-27T08:21:13.674Z,16.21
2022-09-27T08:24:37.400Z,16.28
2022-09-27T08:31:40.620Z,16.02
2022-09-27T08:34:43.587Z,15.84
2022-09-27T08:37:53.384Z,16.14
2022-09-27T08:40:57.798Z,16.23
2022-09-27T08:44:20.610Z,16.12
2022-09-27T08:51:09.445Z,16.51
2022-09-27T08:54:21.859Z,16.23
2022-09-27T08:57:38.982Z,15.97
2022-09-27T09:04:04.578Z,15.71
2022-09-27T09:07:47.050Z,15.62
2022-09-27T09:11:15.089Z,15.40
2022-09-27T09:14:45.208Z,15.26
2022-09-27T09:18:20.996Z,15.29
2022-09-27T09:21:31.484Z,15.21
2022-09-27T09:36:26.450Z,15.17
2022-09-27T09:39:35.898Z,14.85
2022-09-27T09:46:27.158Z,14.88
2022-09-27T09:49:33.912Z,14.85
2022-09-27T09:52:41.330Z,14.86
2022-09-27T09:55:49.900Z,14.99
2022-09-27T09:58:58.815Z,14.67
2022-09-27T10:02:13.034Z,15.07
2022-09-27T10:05:20.118Z,15.00
2022-09-27T10:08:23.878Z,15.33
2022-09-27T10:11:40.022Z,15.42
2022-09-27T10:14:42.744Z,15.69
2022-09-27T10:17:47.155Z,15.79
2022-09-27T10:20:51.446Z,15.78
2022-09-27T10:24:18.515Z,15.70
2022-09-27T10:27:27.668Z,15.82
2022-09-27T10:30:34.545Z,16.00
2022-09-27T10:33:38.329Z,16.02
2022-09-27T10:36:41.904Z,16.01
2022-09-27T10:39:45.423Z,16.01
2022-09-27T10:42:48.793Z,15.93
2022-09-27T10:46:00.759Z,15.94
2022-09-27T10:49:10.151Z,15.80
2022-09-27T10:52:20.061Z,15.89
2022-09-27T10:55:24.819Z,16.18
2022-09-27T10:58:28.483Z,16.23
2022-09-27T11:01:44.823Z,16.09
2022-09-27T11:05:06.544Z,16.26
2022-09-27T11:08:20.147Z,16.36
2022-09-27T11:11:27.187Z,16.60
2022-09-27T11:14:33.048Z,16.47
2022-09-27T11:17:43.475Z,16.41
2022-09-27T11:20:49.554Z,16.28
2022-09-27T11:24:14.614Z,16.37
2022-09-27T11:27:22.233Z,16.29
2022-09-27T11:30:26.249Z,16.32
2022-09-27T11:33:33.237Z,16.26
2022-09-27T11:36:46.295Z,16.40
2022-09-27T11:40:04.544Z,16.04
2022-09-27T11:43:14.329Z,16.09
2022-09-27T11:46:41.180Z,16.23
2022-09-27T11:49:52.596Z,16.17
2022-09-27T11:53:02.713Z,15.90
2022-09-27T11:56:24.623Z,15.89
2022-09-27T11:59:28.736Z,15.90
2022-09-27T12:02:45.017Z,15.82
2022-09-27T12:06:07.496Z,15.72
2022-09-27T12:09:12.831Z,15.73
2022-09-27T12:12:22.983Z,15.68
2022-09-27T12:15:31.138Z,15.59
2022-09-27T12:18:36.051Z,15.75
2022-09-27T12:21:39.305Z,15.81
2022-09-27T12:24:42.841Z,16.00
2022-09-27T12:27:58.314Z,16.00
2022-09-27T12:31:28.025Z,16.06
2022-09-27T12:34:28.160Z,16.07
2022-09-27T12:37:35.597Z,16.00
2022-09-27T12:40:40.815Z,15.90
2022-09-27T12:43:48.762Z,15.75
2022-09-27T12:47:11.569Z,15.74
2022-09-27T12:50:37.769Z,15.66
2022-09-27T12:53:40.457Z,15.69
2022-09-27T12:56:45.167Z,15.60
2022-09-27T13:00:16.064Z,15.52
2022-09-27T13:03:27.627Z,15.60
2022-09-27T13:06:37.786Z,15.59
2022-09-27T13:10:00.805Z,15.66
2022-09-27T13:13:06.090Z,15.60
2022-09-27T13:16:09.999Z,15.66
2022-09-27T13:19:36.864Z,15.54
2022-09-27T13:22:40.982Z,15.42
2022-09-27T13:25:58.188Z,13.70
2022-09-27T13:29:03.442Z,12.06
2022-09-27T13:32:33.819Z,12.00
2022-09-27T13:35:39.700Z,11.74
2022-09-27T13:39:11.574Z,11.91
2022-09-27T13:42:22.281Z,11.88
2022-09-27T13:45:30.385Z,11.93
2022-09-27T13:48:40.170Z,11.92
2022-09-27T13:51:43.981Z,11.94
2022-09-27T13:54:51.880Z,11.98
2022-09-27T13:57:55.068Z,12.00
2022-09-27T14:00:59.978Z,11.84
2022-09-27T14:04:04.784Z,11.51
2022-09-27T14:07:08.523Z,11.59
2022-09-27T14:10:16.863Z,11.92
2022-09-27T14:13:20.550Z,12.16
2022-09-27T14:16:24.698Z,12.07
2022-09-27T14:19:28.204Z,12.25
2022-09-27T14:22:31.363Z,12.37
2022-09-27T14:25:34.480Z,12.45
2022-09-27T14:28:40.502Z,12.25
2022-09-27T14:40:04.944Z,13.07
2022-09-27T14:47:27.885Z,16.37
2022-09-27T14:50:31.106Z,17.89
2022-09-27T14:53:37.855Z,18.31
2022-09-27T14:56:42.163Z,15.50
2022-09-27T14:59:46.357Z,14.08
2022-09-27T15:02:56.268Z,13.78
2022-09-27T15:06:02.769Z,14.90
2022-09-27T15:09:13.533Z,14.91
2022-09-27T15:12:19.210Z,16.80
2022-09-27T15:15:23.832Z,15.62
2022-09-27T15:18:32.758Z,14.73
2022-09-27T15:21:36.858Z,14.45
2022-09-27T15:24:40.685Z,14.21
2022-09-27T15:27:50.997Z,13.62
2022-09-27T15:30:55.637Z,13.85
2022-09-27T15:33:59.365Z,13.76
2022-09-27T15:37:03.774Z,13.67
2022-09-27T15:40:16.386Z,13.57
2022-09-27T15:43:22.673Z,13.23
2022-09-27T15:46:28.250Z,13.37
2022-09-27T15:49:35.913Z,13.23
2022-09-27T15:52:57.322Z,13.19
2022-09-27T15:56:03.881Z,13.07
2022-09-27T15:59:27.285Z,12.83
2022-09-27T16:02:30.798Z,12.83
2022-09-27T16:05:34.060Z,12.73
2022-09-27T16:08:41.946Z,12.63
2022-09-27T16:12:05.709Z,12.59
2022-09-27T16:22:13.947Z,12.41
2022-09-27T16:26:15.745Z,12.39
2022-09-27T16:29:21.139Z,12.21
2022-09-27T16:32:25.779Z,12.13
2022-09-27T16:35:34.011Z,12.00
2022-09-27T16:38:36.827Z,12.02
2022-09-27T16:45:33.505Z,12.02
2022-09-27T16:49:04.163Z,12.04
2022-09-27T16:52:10.693Z,12.01
2022-09-27T16:55:20.821Z,11.98
2022-09-27T16:58:27.559Z,11.76
2022-09-27T17:01:32.294Z,11.79
2022-09-27T17:04:35.748Z,11.83
2022-09-27T17:11:25.312Z,11.88
2022-09-27T17:14:28.590Z,12.00
2022-09-27T17:17:31.266Z,11.98
2022-09-27T17:20:47.471Z,11.88
2022-09-27T17:24:22.473Z,11.93
2022-09-27T17:31:25.070Z,11.90
2022-09-27T17:35:06.487Z,11.87
2022-09-27T17:38:09.573Z,11.81
2022-09-27T17:41:14.087Z,11.77
2022-09-27T17:44:39.353Z,11.75
2022-09-27T17:48:21.345Z,11.75
2022-09-27T17:51:24.073Z,11.69
2022-09-27T17:54:28.322Z,11.67
2022-09-27T17:57:31.934Z,11.62
2022-09-27T18:00:35.663Z,11.63
2022-09-27T18:03:39.060Z,11.62
2022-09-27T18:06:53.350Z,11.53
2022-09-27T18:09:56.346Z,11.55
2022-09-27T18:12:59.408Z,11.55
2022-09-27T18:16:06.004Z,11.60
2022-09-27T18:19:14.110Z,11.64
2022-09-27T18:22:17.444Z,11.59
2022-09-27T18:25:21.085Z,11.62
2022-09-27T18:32:20.659Z,11.46
2022-09-27T18:36:13.000Z,11.44
2022-09-27T18:51:13.350Z,11.59
2022-09-27T18:54:24.779Z,11.59
2022-09-27T18:57:47.769Z,11.60
2022-09-27T19:01:18.195Z,11.59
2022-09-27T19:04:35.194Z,11.62
2022-09-27T19:08:04.767Z,11.58
2022-09-27T19:11:35.061Z,11.50
2022-09-27T19:14:42.177Z,11.65
2022-09-27T19:33:09.891Z,11.36
2022-09-27T19:40:54.446Z,11.49
2022-09-27T19:44:03.379Z,11.48
2022-09-27T19:51:52.861Z,11.60
2022-09-27T19:55:20.092Z,11.57
2022-09-27T19:58:24.375Z,11.61
2022-09-27T20:01:29.031Z,11.52
2022-09-27T20:04:32.648Z,11.51
2022-09-27T20:07:35.553Z,11.43
2022-09-27T20:10:40.522Z,11.34
2022-09-27T20:14:34.777Z,11.48
2022-09-27T20:18:08.480Z,11.20
2022-09-27T20:21:12.363Z,11.20
2022-09-27T20:24:24.394Z,11.17
2022-09-27T20:27:30.495Z,11.27
2022-09-27T20:30:35.130Z,11.26
2022-09-27T20:33:46.988Z,11.19
2022-09-27T20:36:50.853Z,11.17
2022-09-27T20:39:55.078Z,11.23
2022-09-27T20:42:57.929Z,11.15
2022-09-27T20:46:02.560Z,11.20
2022-09-27T20:49:06.146Z,11.14
2022-09-27T20:52:08.635Z,11.24
2022-09-27T20:55:11.909Z,11.10
2022-09-27T20:58:14.412Z,11.19
2022-09-27T21:01:18.247Z,11.12
2022-09-27T21:04:21.654Z,11.10
2022-09-27T21:07:24.468Z,11.10
2022-09-27T21:10:26.962Z,11.19
2022-09-27T21:13:29.802Z,10.98
2022-09-27T21:16:34.514Z,10.97
2022-09-27T21:19:37.718Z,11.04
2022-09-27T21:22:40.279Z,10.88
2022-09-27T21:25:43.996Z,10.97
2022-09-27T21:28:47.455Z,10.99
2022-09-27T21:31:50.329Z,10.93
2022-09-27T21:34:52.884Z,10.86
2022-09-27T21:37:56.447Z,10.86
2022-09-27T21:41:06.206Z,10.79
2022-09-27T21:44:10.370Z,10.74
2022-09-27T21:47:13.045Z,10.73
2022-09-27T21:50:15.871Z,10.50
2022-09-27T21:53:18.379Z,10.55
2022-09-27T21:56:21.610Z,10.36
2022-09-27T21:59:24.094Z,10.46
2022-09-27T22:02:26.981Z,10.37
2022-09-27T22:05:31.076Z,10.35
2022-09-27T22:08:33.689Z,10.23
2022-09-27T22:11:38.624Z,10.32
2022-09-27T22:14:41.108Z,10.31
2022-09-27T22:17:43.931Z,10.26
2022-09-27T22:20:47.069Z,10.20
2022-09-27T22:24:18.874Z,10.07
2022-09-27T22:27:21.372Z,10.06
2022-09-27T22:30:24.339Z,10.05
2022-09-27T22:33:26.969Z,10.15
2022-09-27T22:36:30.362Z,10.11
2022-09-27T22:39:34.069Z,10.14
2022-09-27T22:42:36.956Z,10.10
2022-09-27T22:45:40.142Z,10.01
2022-09-27T22:48:42.963Z,9.85
2022-09-27T22:51:45.445Z,9.85
2022-09-27T22:54:48.242Z,9.76
2022-09-27T22:57:50.732Z,9.71
2022-09-27T23:00:53.927Z,9.67
2022-09-27T23:03:57.342Z,9.69
2022-09-27T23:07:00.174Z,9.58
2022-09-27T23:10:02.709Z,9.44
2022-09-27T23:13:05.575Z,9.46
2022-09-27T23:16:12.451Z,9.38
2022-09-27T23:19:16.489Z,9.31
2022-09-27T23:22:20.678Z,9.25
2022-09-27T23:25:23.468Z,9.16
2022-09-27T23:28:26.268Z,9.04
2022-09-27T23:31:30.044Z,8.97
2022-09-27T23:34:32.687Z,8.97
2022-09-27T23:37:35.504Z,9.02
2022-09-27T23:40:39.086Z,9.02
2022-09-27T23:43:42.178Z,9.06
2022-09-27T23:46:45.387Z,9.03
2022-09-27T23:49:48.199Z,8.91
2022-09-27T23:52:50.774Z,8.79
2022-09-27T23:56:02.682Z,8.63
2022-09-27T23:59:05.471Z,8.59
